Flight Track Log - Related Links

Times and Time Zones

All times are in EST time to prevent confusion due to time zone crossing. See the SKW4725 flight status page for this flight to view local times or setup timezone preferences in your user account.

Time Position Orientation Groundspeed Altitude Reporting Facility
EST Latitude Longitude Course Direction KTS MPH feet Rate Location/Type
Fri 01:43:56 PM 40.7739 -111.9989 102° East 154 177 5,000  Level Salt Lake Center
Fri 01:44:00 PM 40.7728 -111.9964 120° Southeast 143 165 5,200 1,455 Climbing Salt Lake Center
Fri 01:45:02 PM 40.7506 -112.0567 244° Southwest 197 227 6,600 1,742 Climbing Salt Lake Center
Fri 01:46:04 PM 40.8050 -112.1061 325° Northwest 264 304 8,800 2,177 Climbing Salt Lake Center
Fri 01:47:00 PM 40.6712 -111.2197 101° East  Level Estimated
Fri 01:47:06 PM 40.8456 -112.0253 56° Northeast 284 327 11,100  Level Salt Lake Center
Fri 01:48:00 PM 40.6412 -111.0305 102° East  Level Estimated
Fri 01:48:08 PM 40.8431 -111.9172 92° East 299 344 12,800  Level Salt Lake Center
Fri 01:49:00 PM 40.6108 -110.8416 102° East  Level Estimated
Fri 01:49:10 PM 40.8428 -111.7975 90° East 328 377 14,600  Level Salt Lake Center
Fri 01:50:12 PM 40.8414 -111.6458 91° East 349 402 16,700 2,032 Climbing Salt Lake Center
Fri 01:51:14 PM 40.8186 -111.5158 103° East 368 423 18,800 1,790 Climbing Salt Lake Center
Fri 01:52:16 PM 40.7894 -111.3833 106° East 378 435 20,400 1,548 Climbing Salt Lake Center
Fri 01:53:18 PM 40.7589 -111.2469 106° East 388 447 22,000 1,500 Climbing Salt Lake Center
Fri 01:54:20 PM 40.7267 -111.1042 107° East 400 460 23,500 1,500 Climbing Salt Lake Center
Fri 01:55:22 PM 40.6864 -110.9300 107° East 413 475 25,100 1,452 Climbing Salt Lake Center
Fri 01:56:24 PM 40.6511 -110.7803 107° East 426 490 26,500 1,258 Climbing Salt Lake Center
Fri 01:57:26 PM 40.6164 -110.6306 107° East 428 493 27,700 1,065 Climbing Salt Lake Center
Fri 01:58:28 PM 40.5783 -110.4650 107° East 439 505 28,700 1,016 Climbing Salt Lake Center
Fri 01:59:30 PM 40.5392 -110.3033 108° East 444 511 29,800 816 Climbing Salt Lake Center
Fri 02:00:33 PM 40.5106 -110.1494 104° East 452 520 30,400 774 Climbing Salt Lake Center
Fri 02:01:34 PM 40.4756 -109.9653 104° East 464 534 31,400 927 Climbing Salt Lake Center
Fri 02:02:36 PM 40.4453 -109.8069 104° East 466 536 32,300 677 Climbing Salt Lake Center
Fri 02:03:38 PM 40.4147 -109.6478 104° East 468 539 32,800 581 Climbing Salt Lake Center
Fri 02:04:40 PM 40.3778 -109.4589 104° East 477 549 33,500 629 Climbing Salt Lake Center
Fri 02:05:42 PM 40.3456 -109.2928 104° East 486 559 34,100 532 Climbing Salt Lake Center
Fri 02:06:44 PM 40.3072 -109.0989 104° East 491 565 34,600 435 Climbing Salt Lake Center
Fri 02:07:46 PM 40.2739 -108.9281 104° East 500 575 35,000 203 Climbing Salt Lake Center
Fri 02:08:42 PM 40.2381 -108.7536 105° East 504 580 35,000  Level Denver Center
Fri 02:09:50 PM 40.1978 -108.5486 104° East 519 597 35,000  Level Salt Lake Center
Fri 02:10:46 PM 40.1611 -108.3678 105° East 521 600 35,000  Level Denver Center
Fri 02:11:48 PM 40.1250 -108.1911 105° East 521 600 35,000  Level Denver Center
Fri 02:12:50 PM 40.0825 -107.9839 105° East 524 603 35,000  Level Denver Center
Fri 02:13:53 PM 40.0458 -107.8022 105° East 536 617 35,000  Level Denver Center
Fri 02:14:55 PM 40.0025 -107.5919 105° East 536 617 35,000  Level Denver Center
Fri 02:15:56 PM 39.9692 -107.4394 106° East 540 621 35,000  Level Denver Center
Fri 02:16:59 PM 39.9175 -107.1969 105° East 542 624 35,000  Level Denver Center
Fri 02:18:01 PM 39.8794 -107.0128 105° East 542 624 35,000  Level Denver Center
Fri 02:19:03 PM 39.8381 -106.8211 106° East 542 624 35,000  Level Denver Center
Fri 02:20:05 PM 39.7969 -106.6286 105° East 544 626 35,000  Level Denver Center
Fri 02:21:07 PM 39.7519 -106.4200 106° East 552 635 35,000  Level Denver Center
Fri 02:22:10 PM 39.7094 -106.2292 106° East 553 636 35,000  Level Denver Center
Fri 02:23:12 PM 39.6664 -106.0369 106° East 554 638 35,000  Level Denver Center
Fri 02:24:14 PM 39.6175 -105.8247 107° East 553 636 35,000  Level Denver Center
Fri 02:25:16 PM 39.5703 -105.6147 106° East 559 643 35,000  Level Denver Center
Fri 02:26:18 PM 39.5253 -105.4253 107° East 558 642 35,000  Level Denver Center
Fri 02:27:20 PM 39.4814 -105.2369 107° East 554 638 35,000  Level Denver Center
Fri 02:28:22 PM 39.4386 -105.0503 106° East 548 631 35,000  Level Denver Center
Fri 02:29:24 PM 39.3953 -104.8650 107° East 548 631 35,000  Level Denver Center
Fri 02:30:26 PM 39.3431 -104.6464 107° East 544 626 35,000  Level Denver Center
Fri 02:31:28 PM 39.2994 -104.4633 107° East 543 625 35,000  Level Denver Center
Fri 02:32:30 PM 39.2553 -104.2814 107° East 538 619 35,000  Level Denver Center
Fri 02:33:32 PM 39.2083 -104.0925 108° East 553 636 35,000  Level Denver Center
Fri 02:34:34 PM 39.1517 -103.8592 107° East 569 655 35,000  Level Denver Center
Fri 02:35:37 PM 39.1142 -103.7047 107° East 569 655 35,000  Level Denver Center
Fri 02:36:39 PM 39.0539 -103.4664 108° East 582 670 35,000  Level Denver Center
Fri 02:37:41 PM 39.0039 -103.2683 108° East 583 671 35,000  Level Denver Center
Fri 02:38:43 PM 38.9536 -103.0706 108° East 583 671 35,000  Level Denver Center
Fri 02:39:45 PM 38.9014 -102.8675 108° East 595 685 35,000  Level Denver Center
Fri 02:40:47 PM 38.8447 -102.6450 108° East 595 685 35,000  Level Denver Center
Fri 02:41:49 PM 38.7864 -102.4203 108° East 595 685 35,000  Level Denver Center
Fri 02:42:51 PM 38.7364 -102.2308 109° East 588 677 35,000  Level Denver Center
Fri 02:43:53 PM 38.6781 -102.0086 109° East 589 678 35,000  Level Denver Center
Fri 02:44:55 PM 38.6278 -101.8206 109° East 588 677 35,000  Level Denver Center
Fri 02:45:57 PM 38.5686 -101.5992 109° East 587 676 35,000  Level Denver Center
Fri 02:46:59 PM 38.5164 -101.4097 109° East 588 677 35,000  Level Denver Center
Fri 02:48:01 PM 38.4658 -101.2228 109° East 586 674 35,000  Level Denver Center
Fri 02:49:03 PM 38.4058 -101.0053 109° East 582 670 35,000  Level Denver Center
Fri 02:50:05 PM 38.3539 -100.8164 109° East 583 671 35,000  Level Denver Center
Fri 02:51:07 PM 38.2931 -100.5992 110° East 583 671 35,000  Level Denver Center
Fri 02:52:18 PM 38.2314 -100.3794 110° East 583 671 35,000  Level Kansas City Center
Fri 02:53:20 PM 38.1692 -100.1625 110° East 583 671 35,000  Level Kansas City Center
Fri 02:54:22 PM 38.1153 -99.9750 110° East 583 671 35,000  Level Kansas City Center
Fri 02:55:24 PM 38.0611 -99.7881 110° East 584 672 35,000  Level Kansas City Center
Fri 02:56:26 PM 37.9989 -99.5731 110° East 584 672 35,000  Level Kansas City Center
Fri 02:57:28 PM 37.9403 -99.3733 110° East 584 672 35,000  Level Kansas City Center
Fri 02:58:30 PM 37.8839 -99.1833 111° Southeast 584 672 35,000  Level Kansas City Center
Fri 02:59:32 PM 37.8278 -98.9953 111° Southeast 578 665 35,000  Level Kansas City Center
Fri 03:00:34 PM 37.7731 -98.8083 110° East 576 663 35,000  Level Kansas City Center
Fri 03:01:36 PM 37.7172 -98.6219 111° Southeast 576 663 35,000  Level Kansas City Center
Fri 03:02:38 PM 37.6492 -98.3972 111° Southeast 575 662 35,000  Level Kansas City Center
Fri 03:03:40 PM 37.5911 -98.2086 111° Southeast 580 667 35,000  Level Kansas City Center
Fri 03:04:42 PM 37.5325 -98.0192 111° Southeast 583 671 35,000  Level Kansas City Center
Fri 03:05:44 PM 37.4742 -97.8308 111° Southeast 584 672 35,000  Level Kansas City Center
Fri 03:06:46 PM 37.4036 -97.6014 111° Southeast 588 677 35,000  Level Kansas City Center
Fri 03:07:48 PM 37.3444 -97.4158 112° Southeast 582 670 35,000  Level Kansas City Center
Fri 03:08:51 PM 37.2844 -97.2308 112° Southeast 575 662 35,000  Level Kansas City Center
Fri 03:09:53 PM 37.2269 -97.0419 111° Southeast 576 663 35,000  Level Kansas City Center
Fri 03:10:55 PM 37.1692 -96.8581 111° Southeast 576 663 35,000  Level Kansas City Center
Fri 03:11:57 PM 37.0989 -96.6433 112° Southeast 555 639 35,000  Level Kansas City Center
Fri 03:12:59 PM 37.0397 -96.4614 112° Southeast 556 640 35,000  Level Kansas City Center
Fri 03:14:01 PM 36.9794 -96.2789 112° Southeast 561 646 35,000  Level Kansas City Center
Fri 03:15:03 PM 36.9192 -96.0967 112° Southeast 561 646 35,000  Level Kansas City Center
Fri 03:16:05 PM 36.8594 -95.9111 112° Southeast 571 657 35,000  Level Kansas City Center
Fri 03:17:07 PM 36.8000 -95.7331 113° Southeast 560 644 35,000  Level Kansas City Center
Fri 03:18:09 PM 36.7397 -95.5528 113° Southeast 559 643 35,000  Level Kansas City Center
Fri 03:19:11 PM 36.6797 -95.3739 113° Southeast 557 641 35,000 -48 Level Kansas City Center
Fri 03:20:13 PM 36.6186 -95.1936 113° Southeast 556 640 34,900  Descending Kansas City Center
Fri 03:21:15 PM 36.5433 -94.9769 113° Southeast 557 641 35,000 97 Climbing Kansas City Center
Fri 03:22:17 PM 36.4814 -94.7972 113° Southeast 558 642 35,100  Climbing Kansas City Center
Fri 03:23:19 PM 36.4192 -94.6181 113° Southeast 559 643 35,000 -48 Descending Kansas City Center
Fri 03:24:21 PM 36.3561 -94.4392 114° Southeast 559 643 35,000  Level Kansas City Center
Fri 03:25:25 PM 36.2947 -94.2592 113° Southeast 562 647 35,000  Level Memphis Center
Fri 03:26:28 PM 36.2356 -94.0775 112° Southeast 565 650 35,000  Level Memphis Center
Fri 03:27:30 PM 36.2006 -93.8489 101° East 564 649 35,000  Level Memphis Center
Fri 03:28:32 PM 36.1747 -93.6944 102° East 563 648 35,000  Level Memphis Center
Fri 03:29:34 PM 36.1350 -93.4722 102° East 555 639 35,000  Level Memphis Center
Fri 03:30:36 PM 36.1039 -93.2897 102° East 547 629 35,000  Level Memphis Center
Fri 03:31:38 PM 36.0717 -93.1092 102° East 542 624 35,000 -290 Level Memphis Center
Fri 03:32:40 PM 36.0383 -92.9269 103° East 541 623 34,400 -919 Descending Memphis Center
Fri 03:33:42 PM 36.0069 -92.7500 102° East 533 613 33,100 -1,210 Descending Memphis Center
Fri 03:34:44 PM 35.9753 -92.5792 103° East 520 598 31,900 -1,016 Descending Memphis Center
Fri 03:35:46 PM 35.9389 -92.3786 103° East 506 582 31,000 -435 Descending Memphis Center
Fri 03:36:48 PM 35.9150 -92.2533 103° East 487 560 31,000  Level Memphis Center
Fri 03:37:51 PM 35.8814 -92.0681 103° East 468 539 31,000 -48 Level Memphis Center
Fri 03:38:53 PM 35.8508 -91.9083 103° East 470 541 30,900 -1,355 Descending Memphis Center
Fri 03:39:55 PM 35.8208 -91.7503 103° East 475 547 28,200 -2,710 Descending Memphis Center
Fri 03:40:57 PM 35.7758 -91.6203 113° Southeast 423 487 25,300 -2,952 Descending Memphis Center
Fri 03:41:59 PM 35.7203 -91.4714 115° Southeast 405 466 22,100 -2,613 Descending Memphis Center
Fri 03:43:01 PM 35.6753 -91.3506 115° Southeast 398 458 19,900 -2,129 Descending Memphis Center
Fri 03:44:03 PM 35.6328 -91.2331 114° Southeast 385 443 17,700 -2,226 Descending Memphis Center
Fri 03:45:05 PM 35.5850 -91.1061 115° Southeast 383 441 15,300 -2,032 Descending Memphis Center
Fri 03:46:07 PM 35.5400 -90.9911 116° Southeast 378 435 13,500 -1,584 Descending Memphis Center
Fri 03:47:10 PM 35.5006 -90.8856 115° Southeast 355 409 12,000 -1,440 Descending Memphis Center
Fri 03:48:12 PM 35.4656 -90.7814 112° Southeast 338 389 10,500 -968 Descending Memphis Center
Fri 03:49:14 PM 35.4319 -90.6825 113° Southeast 325 374 10,000 -435 Descending Memphis Center
Fri 03:50:16 PM 35.3986 -90.5822 112° Southeast 278 320 9,600 -774 Descending Memphis Center
Fri 03:51:18 PM 35.3714 -90.4958 111° Southeast 274 315 8,400 -1,161 Descending Memphis Center
Fri 03:52:20 PM 35.3428 -90.4111 112° Southeast 273 314 7,200 -726 Descending Memphis Center
Fri 03:53:22 PM 35.3167 -90.3283 111° Southeast 270 311 6,900 -726 Descending Memphis Center
Fri 03:54:24 PM 35.3028 -90.2392 101° East 269 310 5,700 -1,113 Descending Memphis Center
Fri 03:55:26 PM 35.2875 -90.1544 102° East 266 306 4,600 -1,180 Descending Memphis Center
Fri 03:56:26 PM 35.2667 -90.0667 106° East 236 272 3,300 -1,100 Descending KMEM
Fri 03:57:26 PM 35.2500 -90.0000 107° East 231 266 2,400 -650 Descending KMEM
Fri 03:58:26 PM 35.1833 -89.9833 168° South 209 241 2,000 -263 Descending KMEM
Fri 03:59:20 PM 35.1333 -89.9833 180° South 185 213 1,900 -368 Descending KMEM
Fri 04:00:20 PM 35.1000 -89.9667 158° South 131 151 1,300 -667 Descending KMEM
Fri 04:01:26 PM 35.0667 -89.9667 180° South 118 136 500 -727 Descending KMEM

Login

Don't have an account? Register now (free) for customized features, flight alerts, and more!